createdAt,value
2018-11-21T00:02:07.188Z,2.40
2018-11-21T00:04:35.782Z,2.30
2018-11-21T00:07:04.544Z,2.30
2018-11-21T00:09:33.146Z,2.30
2018-11-21T00:12:01.739Z,2.30
2018-11-21T00:14:30.347Z,2.30
2018-11-21T00:16:58.992Z,2.30
2018-11-21T00:19:27.569Z,2.30
2018-11-21T00:21:56.126Z,2.30
2018-11-21T00:24:24.777Z,2.20
2018-11-21T00:26:53.409Z,2.20
2018-11-21T00:29:22.145Z,2.30
2018-11-21T00:31:50.683Z,2.30
2018-11-21T00:34:19.532Z,2.20
2018-11-21T00:36:48.103Z,2.20
2018-11-21T00:39:16.759Z,2.20
2018-11-21T00:41:45.450Z,2.20
2018-11-21T00:44:14.192Z,2.10
2018-11-21T00:46:42.808Z,2.00
2018-11-21T00:49:11.347Z,2.10
2018-11-21T00:51:39.958Z,2.00
2018-11-21T00:54:08.863Z,1.90
2018-11-21T00:56:37.272Z,1.90
2018-11-21T00:59:06.072Z,2.00
2018-11-21T01:01:35.881Z,2.00
2018-11-21T01:04:04.512Z,2.00
2018-11-21T01:06:33.106Z,2.00
2018-11-21T01:09:01.785Z,2.00
2018-11-21T01:11:30.350Z,2.00
2018-11-21T01:13:58.917Z,2.00
2018-11-21T01:16:27.754Z,2.00
2018-11-21T01:18:56.292Z,2.00
2018-11-21T01:21:24.961Z,2.00
2018-11-21T01:23:53.624Z,2.00
2018-11-21T01:26:22.769Z,2.00
2018-11-21T01:28:51.300Z,2.10
2018-11-21T01:31:19.875Z,2.10
2018-11-21T01:33:48.551Z,2.10
2018-11-21T01:36:17.387Z,2.10
2018-11-21T01:38:46.049Z,2.00
2018-11-21T01:41:14.705Z,2.00
2018-11-21T01:43:43.406Z,2.10
2018-11-21T01:46:11.915Z,2.10
2018-11-21T01:48:40.468Z,2.10
2018-11-21T01:51:09.082Z,2.10
2018-11-21T01:53:37.772Z,2.00
2018-11-21T01:56:06.445Z,2.00
2018-11-21T01:58:35.104Z,2.00
2018-11-21T02:01:03.838Z,2.00
2018-11-21T02:03:32.768Z,2.00
2018-11-21T02:06:01.324Z,2.10
2018-11-21T02:08:30.344Z,2.10
2018-11-21T02:10:58.944Z,2.20
2018-11-21T02:13:28.886Z,2.20
2018-11-21T02:15:57.497Z,2.20
2018-11-21T02:18:26.144Z,2.20
2018-11-21T02:20:54.680Z,2.20
2018-11-21T02:23:23.355Z,2.20
2018-11-21T02:25:51.885Z,2.20
2018-11-21T02:28:20.432Z,2.20
2018-11-21T02:30:49.080Z,2.30
2018-11-21T02:33:17.596Z,2.30
2018-11-21T02:35:46.417Z,2.30
2018-11-21T02:38:14.999Z,2.40
2018-11-21T02:40:43.618Z,2.30
2018-11-21T02:43:12.263Z,2.40
2018-11-21T02:45:40.811Z,2.40
2018-11-21T02:48:09.404Z,2.50
2018-11-21T02:50:37.919Z,2.50
2018-11-21T02:53:06.532Z,2.60
2018-11-21T02:55:35.117Z,2.60
2018-11-21T02:58:03.701Z,2.70
2018-11-21T03:00:32.257Z,2.70
2018-11-21T03:03:00.968Z,2.70
2018-11-21T03:05:29.539Z,2.80
2018-11-21T03:08:01.950Z,2.80
2018-11-21T03:10:30.580Z,2.90
2018-11-21T03:12:59.131Z,2.90
2018-11-21T03:15:29.346Z,2.90
2018-11-21T03:17:57.908Z,2.90
2018-11-21T03:20:26.523Z,2.90
2018-11-21T03:22:55.035Z,2.90
2018-11-21T03:25:23.613Z,2.90
2018-11-21T03:27:52.200Z,2.90
2018-11-21T03:30:20.851Z,2.80
2018-11-21T03:32:49.507Z,2.80
2018-11-21T03:35:18.063Z,2.80
2018-11-21T03:37:46.923Z,2.70
2018-11-21T03:40:15.497Z,2.70
2018-11-21T03:42:44.051Z,2.70
2018-11-21T03:45:13.096Z,2.70
2018-11-21T03:47:41.653Z,2.60
2018-11-21T03:50:11.506Z,2.60
2018-11-21T03:52:40.044Z,2.60
2018-11-21T03:55:09.399Z,2.60
2018-11-21T03:57:38.083Z,2.50
2018-11-21T04:00:09.075Z,2.50
2018-11-21T04:02:37.648Z,2.50
2018-11-21T04:05:07.416Z,2.50
2018-11-21T04:07:36.053Z,2.50
2018-11-21T04:10:06.675Z,2.40
2018-11-21T04:12:35.236Z,2.40
2018-11-21T04:15:04.006Z,2.50
2018-11-21T04:17:32.589Z,2.50
2018-11-21T04:20:01.155Z,2.40
2018-11-21T04:22:29.785Z,2.40
2018-11-21T04:24:58.394Z,2.40
2018-11-21T04:27:27.092Z,2.50
2018-11-21T04:29:55.676Z,2.50
2018-11-21T04:32:24.286Z,2.40
2018-11-21T04:34:53.090Z,2.50
2018-11-21T04:37:21.622Z,2.50
2018-11-21T04:39:51.354Z,2.60
2018-11-21T04:42:20.041Z,2.50
2018-11-21T04:44:48.647Z,2.50
2018-11-21T04:47:17.223Z,2.50
2018-11-21T04:49:45.796Z,2.60
2018-11-21T04:52:14.610Z,2.70
2018-11-21T04:54:43.312Z,2.70
2018-11-21T04:57:22.749Z,2.80
2018-11-21T04:59:51.506Z,2.80
2018-11-21T05:02:19.920Z,2.80
2018-11-21T05:04:48.506Z,2.80
2018-11-21T05:07:17.601Z,2.70
2018-11-21T05:09:46.330Z,2.70
2018-11-21T05:12:15.197Z,2.70
2018-11-21T05:14:43.812Z,2.70
2018-11-21T05:17:12.518Z,2.70
2018-11-21T05:19:41.183Z,2.70
2018-11-21T05:22:09.744Z,2.70
2018-11-21T05:24:38.382Z,2.70
2018-11-21T05:27:07.239Z,2.70
2018-11-21T05:29:35.950Z,2.70
2018-11-21T05:32:05.555Z,2.70
2018-11-21T05:34:34.437Z,2.70
2018-11-21T05:37:03.164Z,2.70
2018-11-21T05:39:31.799Z,2.70
2018-11-21T05:42:00.426Z,2.70
2018-11-21T05:44:31.467Z,2.60
2018-11-21T05:46:58.414Z,2.60
2018-11-21T05:49:26.993Z,2.60
2018-11-21T05:51:55.894Z,2.60
2018-11-21T05:54:24.599Z,2.60
2018-11-21T05:56:53.259Z,2.60
2018-11-21T05:59:21.878Z,2.60
2018-11-21T06:01:50.534Z,2.60
2018-11-21T06:04:19.273Z,2.70
2018-11-21T06:06:48.936Z,3.10
2018-11-21T06:09:17.660Z,3.30
2018-11-21T06:11:46.365Z,3.30
2018-11-21T06:14:14.914Z,3.20
2018-11-21T06:16:43.640Z,3.00
2018-11-21T06:19:12.422Z,2.80
2018-11-21T06:21:40.960Z,2.80
2018-11-21T06:24:09.835Z,2.70
2018-11-21T06:26:39.981Z,2.70
2018-11-21T06:29:08.759Z,2.70
2018-11-21T06:31:37.598Z,2.70
2018-11-21T06:34:06.382Z,2.60
2018-11-21T06:36:34.963Z,2.70
2018-11-21T06:39:04.873Z,3.00
2018-11-21T06:41:33.483Z,3.60
2018-11-21T06:44:02.101Z,4.10
2018-11-21T06:46:31.024Z,4.20
2018-11-21T06:48:59.641Z,4.40
2018-11-21T06:51:28.222Z,4.50
2018-11-21T06:53:58.150Z,4.20
2018-11-21T06:56:26.904Z,3.90
2018-11-21T06:58:55.907Z,3.70
2018-11-21T07:01:24.686Z,3.40
2018-11-21T07:03:53.254Z,3.20
2018-11-21T07:06:21.896Z,3.00
2018-11-21T07:08:50.985Z,2.90
2018-11-21T07:11:19.815Z,2.90
2018-11-21T07:13:48.773Z,2.80
2018-11-21T07:16:17.503Z,2.70
2018-11-21T07:18:46.149Z,2.70
2018-11-21T07:21:14.945Z,2.60
2018-11-21T07:23:43.604Z,2.50
2018-11-21T07:26:12.186Z,2.50
2018-11-21T07:28:46.586Z,2.50
2018-11-21T07:31:17.942Z,2.50
2018-11-21T07:33:46.767Z,2.50
2018-11-21T07:36:15.301Z,2.50
2018-11-21T07:38:44.356Z,2.60
2018-11-21T07:41:13.099Z,2.50
2018-11-21T07:43:42.055Z,2.60
2018-11-21T07:46:10.718Z,2.70
2018-11-21T07:48:39.409Z,2.70
2018-11-21T07:51:08.065Z,2.70
2018-11-21T07:53:36.751Z,2.80
2018-11-21T07:56:31.253Z,2.80
2018-11-21T07:59:00.054Z,2.90
2018-11-21T08:01:31.268Z,2.90
2018-11-21T08:04:05.609Z,3.00
2018-11-21T08:06:46.660Z,3.00
2018-11-21T08:09:33.350Z,3.10
2018-11-21T08:12:21.914Z,3.10
2018-11-21T08:15:19.079Z,3.20
2018-11-21T08:18:02.785Z,3.20
2018-11-21T08:20:53.407Z,3.30
2018-11-21T08:23:40.419Z,3.20
2018-11-21T08:26:31.081Z,3.20
2018-11-21T08:28:59.751Z,3.30
2018-11-21T08:31:28.341Z,3.30
2018-11-21T08:33:57.038Z,3.30
2018-11-21T08:36:25.612Z,3.40
2018-11-21T08:38:54.219Z,3.40
2018-11-21T08:41:22.937Z,3.40
2018-11-21T08:43:51.587Z,3.40
2018-11-21T08:46:20.147Z,3.50
2018-11-21T08:48:48.693Z,3.50
2018-11-21T08:51:17.357Z,3.50
2018-11-21T08:53:46.011Z,3.60
2018-11-21T08:56:14.560Z,3.80
2018-11-21T08:58:43.103Z,3.80
2018-11-21T09:01:11.810Z,3.80
2018-11-21T09:03:40.351Z,3.80
2018-11-21T09:06:08.881Z,3.80
2018-11-21T09:08:37.510Z,3.80
2018-11-21T09:11:06.420Z,3.80
2018-11-21T09:13:35.365Z,3.80
2018-11-21T09:16:04.330Z,3.80
2018-11-21T09:18:33.214Z,4.00
2018-11-21T09:21:01.850Z,4.10
2018-11-21T09:23:30.487Z,4.20
2018-11-21T09:25:59.371Z,4.20
2018-11-21T09:28:28.202Z,4.20
2018-11-21T09:30:57.135Z,4.30
2018-11-21T09:33:26.091Z,4.40
2018-11-21T09:35:54.730Z,4.40
2018-11-21T09:38:23.488Z,4.60
2018-11-21T09:40:52.036Z,4.70
2018-11-21T09:43:20.660Z,4.70
2018-11-21T09:45:49.470Z,4.70
2018-11-21T09:48:18.167Z,4.70
2018-11-21T09:50:46.802Z,4.60
2018-11-21T09:53:15.733Z,4.60
2018-11-21T09:55:44.497Z,4.60
2018-11-21T09:58:13.323Z,4.60
2018-11-21T10:01:18.152Z,4.80
2018-11-21T10:03:49.113Z,4.70
2018-11-21T10:06:22.477Z,4.70
2018-11-21T10:08:55.439Z,4.70
2018-11-21T10:11:24.117Z,4.80
2018-11-21T10:13:52.738Z,4.80
2018-11-21T10:16:21.345Z,4.80
2018-11-21T10:18:51.698Z,4.80
2018-11-21T10:21:21.843Z,4.80
2018-11-21T10:23:50.516Z,4.90
2018-11-21T10:26:19.216Z,4.80
2018-11-21T10:28:48.449Z,4.80
2018-11-21T10:31:17.017Z,4.80
2018-11-21T10:33:45.542Z,4.70
2018-11-21T10:36:14.148Z,4.70
2018-11-21T10:38:43.080Z,4.90
2018-11-21T10:41:11.743Z,4.90
2018-11-21T10:43:40.248Z,5.00
2018-11-21T10:46:09.145Z,5.00
2018-11-21T10:48:37.832Z,4.90
2018-11-21T10:51:06.411Z,5.00
2018-11-21T10:53:35.006Z,5.10
2018-11-21T10:56:03.665Z,5.30
2018-11-21T10:58:32.331Z,5.40
2018-11-21T11:01:18.547Z,5.50
2018-11-21T11:04:15.373Z,5.60
2018-11-21T11:07:01.641Z,5.70
2018-11-21T11:09:47.929Z,5.70
2018-11-21T11:12:26.730Z,5.60
2018-11-21T11:15:12.717Z,5.60
2018-11-21T11:17:59.584Z,5.60
2018-11-21T11:20:46.370Z,5.40
2018-11-21T11:23:34.062Z,5.50
2018-11-21T11:26:34.393Z,5.70
2018-11-21T11:29:27.720Z,5.80
2018-11-21T11:32:14.067Z,5.70
2018-11-21T11:34:59.989Z,5.40
2018-11-21T11:37:59.280Z,5.60
2018-11-21T11:40:45.518Z,5.50
2018-11-21T11:43:36.010Z,5.50
2018-11-21T11:46:41.980Z,5.40
2018-11-21T11:49:32.230Z,5.40
2018-11-21T11:52:18.021Z,5.40
2018-11-21T11:55:04.201Z,5.40
2018-11-21T11:57:54.357Z,5.40
2018-11-21T12:00:42.235Z,5.40
2018-11-21T12:03:28.497Z,5.60
2018-11-21T12:06:14.695Z,5.60
2018-11-21T12:09:02.771Z,5.70
2018-11-21T12:11:49.971Z,5.80
2018-11-21T12:14:35.360Z,5.90
2018-11-21T12:17:24.890Z,5.80
2018-11-21T12:20:15.354Z,5.80
2018-11-21T12:23:03.181Z,5.80
2018-11-21T12:26:10.374Z,5.70
2018-11-21T12:28:53.076Z,5.70
2018-11-21T12:31:39.197Z,5.60
2018-11-21T12:34:32.648Z,5.50
2018-11-21T12:37:18.863Z,5.40
2018-11-21T12:40:13.272Z,5.30
2018-11-21T12:43:01.045Z,5.30
2018-11-21T12:46:07.799Z,5.40
2018-11-21T12:48:55.060Z,5.40
2018-11-21T12:51:51.647Z,5.40
2018-11-21T12:54:37.887Z,5.20
2018-11-21T12:57:16.349Z,5.30
2018-11-21T13:00:02.342Z,5.30
2018-11-21T13:02:48.433Z,5.30
2018-11-21T13:05:38.084Z,5.30
2018-11-21T13:08:43.721Z,5.40
2018-11-21T13:11:31.466Z,5.40
2018-11-21T13:14:10.852Z,5.40
2018-11-21T13:17:13.400Z,5.50
2018-11-21T13:20:06.646Z,5.50
2018-11-21T13:22:43.398Z,5.60
2018-11-21T13:25:30.372Z,5.60
2018-11-21T13:28:18.011Z,5.60
2018-11-21T13:31:06.403Z,5.70
2018-11-21T13:33:52.246Z,5.70
2018-11-21T13:36:39.910Z,5.80
2018-11-21T13:39:29.198Z,5.70
2018-11-21T13:42:04.143Z,5.70
2018-11-21T13:44:57.737Z,5.70
2018-11-21T13:47:40.656Z,5.60
2018-11-21T13:50:34.377Z,5.50
2018-11-21T13:53:30.671Z,5.40
2018-11-21T13:56:00.141Z,5.40
2018-11-21T13:58:28.847Z,5.40
2018-11-21T14:00:57.408Z,5.40
2018-11-21T14:03:26.038Z,5.30
2018-11-21T14:05:54.595Z,5.20
2018-11-21T14:08:23.196Z,5.20
2018-11-21T14:10:51.747Z,5.10
2018-11-21T14:13:20.320Z,5.10
2018-11-21T14:15:49.008Z,5.10
2018-11-21T14:18:17.576Z,5.20
2018-11-21T14:20:46.178Z,5.20
2018-11-21T14:23:15.379Z,5.20
2018-11-21T14:25:44.063Z,5.20
2018-11-21T14:28:12.607Z,5.20
2018-11-21T14:30:41.334Z,5.30
2018-11-21T14:33:09.941Z,5.30
2018-11-21T14:35:38.873Z,5.30
2018-11-21T14:38:07.608Z,5.30
2018-11-21T14:40:36.358Z,5.40
2018-11-21T14:43:05.084Z,5.30
2018-11-21T14:45:33.866Z,5.30
2018-11-21T14:48:02.491Z,5.40
2018-11-21T14:50:33.425Z,5.30
2018-11-21T14:53:02.021Z,5.20
2018-11-21T14:55:30.791Z,5.10
2018-11-21T14:57:59.417Z,5.10
2018-11-21T15:00:27.989Z,5.00
2018-11-21T15:02:57.076Z,5.00
2018-11-21T15:05:25.631Z,4.90
2018-11-21T15:07:55.630Z,4.90
2018-11-21T15:10:24.792Z,4.90
2018-11-21T15:12:53.466Z,4.80
2018-11-21T15:15:22.527Z,4.70
2018-11-21T15:17:51.115Z,4.70
2018-11-21T15:20:23.553Z,4.70
2018-11-21T15:22:52.176Z,4.60
2018-11-21T15:25:21.900Z,4.60
2018-11-21T15:27:50.385Z,4.60
2018-11-21T15:30:24.418Z,4.60
2018-11-21T15:32:52.967Z,4.60
2018-11-21T15:35:24.769Z,4.50
2018-11-21T15:37:53.449Z,4.50
2018-11-21T15:40:23.222Z,4.40
2018-11-21T15:42:52.199Z,4.40
2018-11-21T15:45:22.460Z,4.40
2018-11-21T15:47:52.933Z,4.30
2018-11-21T15:50:21.491Z,4.30
2018-11-21T15:52:53.108Z,4.30
2018-11-21T15:55:18.930Z,4.30
2018-11-21T15:57:47.671Z,4.30
2018-11-21T16:00:18.206Z,4.30
2018-11-21T16:02:47.821Z,4.40
2018-11-21T16:05:17.038Z,4.40
2018-11-21T16:07:45.647Z,4.40
2018-11-21T16:10:18.912Z,4.50
2018-11-21T16:12:44.399Z,4.60
2018-11-21T16:15:15.727Z,4.60
2018-11-21T16:17:44.257Z,4.50
2018-11-21T16:20:14.245Z,4.50
2018-11-21T16:22:42.892Z,4.50
2018-11-21T16:25:13.200Z,4.40
2018-11-21T16:27:42.535Z,4.50
2018-11-21T16:30:13.254Z,4.50
2018-11-21T16:32:42.252Z,4.40
2018-11-21T16:35:11.031Z,4.50
2018-11-21T16:37:40.620Z,4.40
2018-11-21T16:40:11.062Z,4.40
2018-11-21T16:42:40.221Z,4.40
2018-11-21T16:45:10.156Z,4.40
2018-11-21T16:47:38.894Z,4.40
2018-11-21T16:50:09.667Z,4.50
2018-11-21T16:52:38.332Z,4.40
2018-11-21T16:55:08.242Z,4.40
2018-11-21T16:57:36.842Z,4.40
2018-11-21T17:00:08.375Z,4.40
2018-11-21T17:02:39.261Z,4.40
2018-11-21T17:05:09.554Z,4.40
2018-11-21T17:07:38.561Z,4.40
2018-11-21T17:10:09.788Z,4.30
2018-11-21T17:12:38.452Z,4.30
2018-11-21T17:15:09.420Z,4.30
2018-11-21T17:17:37.954Z,4.20
2018-11-21T17:20:09.408Z,4.20
2018-11-21T17:22:38.038Z,4.20
2018-11-21T17:25:09.279Z,4.20
2018-11-21T17:27:37.942Z,4.30
2018-11-21T17:30:08.852Z,4.30
2018-11-21T17:32:37.605Z,4.40
2018-11-21T17:35:07.282Z,4.40
2018-11-21T17:37:36.070Z,4.40
2018-11-21T17:40:11.810Z,4.40
2018-11-21T17:42:40.526Z,4.30
2018-11-21T17:45:10.199Z,4.30
2018-11-21T17:47:38.991Z,4.20
2018-11-21T17:50:10.090Z,4.20
2018-11-21T17:52:38.776Z,4.20
2018-11-21T17:55:08.941Z,4.20
2018-11-21T17:57:37.651Z,4.10
2018-11-21T18:00:10.791Z,4.10
2018-11-21T18:02:39.966Z,4.10
2018-11-21T18:05:09.957Z,4.00
2018-11-21T18:07:38.743Z,4.00
2018-11-21T18:10:10.289Z,3.90
2018-11-21T18:12:39.242Z,3.80
2018-11-21T18:15:09.638Z,3.70
2018-11-21T18:17:38.329Z,3.70
2018-11-21T18:20:09.404Z,3.60
2018-11-21T18:22:38.163Z,3.50
2018-11-21T18:25:08.665Z,3.50
2018-11-21T18:27:37.570Z,3.40
2018-11-21T18:30:09.627Z,3.40
2018-11-21T18:32:38.381Z,3.40
2018-11-21T18:35:08.748Z,3.30
2018-11-21T18:37:37.403Z,3.30
2018-11-21T18:40:08.716Z,3.30
2018-11-21T18:42:37.454Z,3.20
2018-11-21T18:45:08.920Z,3.20
2018-11-21T18:47:37.698Z,3.20
2018-11-21T18:50:11.186Z,3.20
2018-11-21T18:52:37.155Z,3.10
2018-11-21T18:55:08.153Z,3.10
2018-11-21T18:58:14.562Z,3.20
2018-11-21T19:00:44.872Z,3.10
2018-11-21T19:03:13.601Z,3.10
2018-11-21T19:05:42.001Z,3.10
2018-11-21T19:08:10.699Z,3.20
2018-11-21T19:10:39.415Z,3.20
2018-11-21T19:13:08.209Z,3.20
2018-11-21T19:15:36.811Z,3.20
2018-11-21T19:18:05.729Z,3.20
2018-11-21T19:20:34.591Z,3.20
2018-11-21T19:23:03.219Z,3.20
2018-11-21T19:25:32.085Z,3.20
2018-11-21T19:28:00.857Z,3.30
2018-11-21T19:30:29.583Z,3.40
2018-11-21T19:32:58.428Z,3.40
2018-11-21T19:35:26.984Z,3.40
2018-11-21T19:37:55.646Z,3.50
2018-11-21T19:40:24.265Z,3.40
2018-11-21T19:42:52.833Z,3.50
2018-11-21T19:45:21.582Z,3.60
2018-11-21T19:47:50.901Z,3.60
2018-11-21T19:50:20.162Z,3.60
2018-11-21T19:52:49.380Z,3.60
2018-11-21T19:55:22.905Z,3.70
2018-11-21T19:57:51.671Z,3.70
2018-11-21T20:00:21.909Z,3.70
2018-11-21T20:02:50.816Z,3.80
2018-11-21T20:05:19.885Z,3.80
2018-11-21T20:07:48.949Z,3.70
2018-11-21T20:10:18.486Z,3.70
2018-11-21T20:12:47.526Z,3.70
2018-11-21T20:15:23.383Z,3.70
2018-11-21T20:17:53.696Z,3.80
2018-11-21T20:20:22.826Z,3.80
2018-11-21T20:22:54.340Z,3.70
2018-11-21T20:25:23.930Z,3.80
